sensor_id;sensor_type;location;lat;lon;timestamp;P1;durP1;ratioP1;P2;durP2;ratioP2
22983;SDS011;11658;48.908;9.140;2023-03-23T04:02:29;1.30;;;1.20;;
22983;SDS011;11658;48.908;9.140;2023-03-23T04:04:54;1.57;;;1.27;;
22983;SDS011;11658;48.908;9.140;2023-03-23T04:07:20;1.43;;;1.33;;
22983;SDS011;11658;48.908;9.140;2023-03-23T04:09:46;1.53;;;1.20;;
22983;SDS011;11658;48.908;9.140;2023-03-23T04:12:12;2.57;;;1.30;;
22983;SDS011;11658;48.908;9.140;2023-03-23T04:14:38;1.63;;;1.10;;
22983;SDS011;11658;48.908;9.140;2023-03-23T04:17:05;1.70;;;1.23;;
22983;SDS011;11658;48.908;9.140;2023-03-23T04:19:32;1.30;;;1.20;;
22983;SDS011;11658;48.908;9.140;2023-03-23T04:21:58;2.23;;;0.93;;
22983;SDS011;11658;48.908;9.140;2023-03-23T04:24:24;1.30;;;1.20;;
22983;SDS011;11658;48.908;9.140;2023-03-23T04:26:50;1.83;;;1.40;;
22983;SDS011;11658;48.908;9.140;2023-03-23T04:29:19;1.57;;;1.20;;
22983;SDS011;11658;48.908;9.140;2023-03-23T04:31:44;1.30;;;1.20;;
22983;SDS011;11658;48.908;9.140;2023-03-23T04:34:10;1.30;;;1.20;;
22983;SDS011;11658;48.908;9.140;2023-03-23T04:36:38;1.13;;;1.10;;
22983;SDS011;11658;48.908;9.140;2023-03-23T04:39:04;1.50;;;1.40;;
22983;SDS011;11658;48.908;9.140;2023-03-23T04:41:34;1.70;;;1.30;;
22983;SDS011;11658;48.908;9.140;2023-03-23T04:44:00;1.87;;;1.20;;
22983;SDS011;11658;48.908;9.140;2023-03-23T04:46:29;2.10;;;1.20;;
22983;SDS011;11658;48.908;9.140;2023-03-23T04:48:55;3.70;;;1.40;;
22983;SDS011;11658;48.908;9.140;2023-03-23T04:51:23;2.53;;;1.60;;
22983;SDS011;11658;48.908;9.140;2023-03-23T04:53:51;1.70;;;1.30;;
22983;SDS011;11658;48.908;9.140;2023-03-23T04:56:17;1.70;;;1.23;;
22983;SDS011;11658;48.908;9.140;2023-03-23T04:58:43;1.40;;;1.10;;
22983;SDS011;11658;48.908;9.140;2023-03-23T05:01:10;1.87;;;1.37;;
22983;SDS011;11658;48.908;9.140;2023-03-23T05:03:39;2.07;;;1.27;;
22983;SDS011;11658;48.908;9.140;2023-03-23T05:06:05;1.37;;;1.07;;
22983;SDS011;11658;48.908;9.140;2023-03-23T05:08:31;1.93;;;1.43;;
22983;SDS011;11658;48.908;9.140;2023-03-23T05:10:57;1.40;;;1.00;;
22983;SDS011;11658;48.908;9.140;2023-03-23T05:13:24;2.43;;;1.23;;
22983;SDS011;11658;48.908;9.140;2023-03-23T05:15:50;3.43;;;1.30;;
22983;SDS011;11658;48.908;9.140;2023-03-23T05:18:16;1.90;;;1.20;;
22983;SDS011;11658;48.908;9.140;2023-03-23T05:20:42;2.23;;;1.20;;
22983;SDS011;11658;48.908;9.140;2023-03-23T05:23:08;1.30;;;1.10;;
22983;SDS011;11658;48.908;9.140;2023-03-23T05:25:35;1.43;;;1.20;;
22983;SDS011;11658;48.908;9.140;2023-03-23T05:28:05;1.30;;;1.00;;
22983;SDS011;11658;48.908;9.140;2023-03-23T05:30:31;1.87;;;1.00;;
22983;SDS011;11658;48.908;9.140;2023-03-23T05:32:57;1.20;;;1.10;;
22983;SDS011;11658;48.908;9.140;2023-03-23T05:35:24;1.67;;;1.20;;
22983;SDS011;11658;48.908;9.140;2023-03-23T05:37:50;1.27;;;1.17;;
22983;SDS011;11658;48.908;9.140;2023-03-23T05:40:18;1.50;;;1.33;;
22983;SDS011;11658;48.908;9.140;2023-03-23T05:42:45;1.57;;;1.30;;
22983;SDS011;11658;48.908;9.140;2023-03-23T05:45:12;1.60;;;1.20;;
22983;SDS011;11658;48.908;9.140;2023-03-23T05:47:38;1.40;;;1.30;;
22983;SDS011;11658;48.908;9.140;2023-03-23T05:50:06;1.30;;;1.20;;
22983;SDS011;11658;48.908;9.140;2023-03-23T05:52:34;3.30;;;1.30;;
22983;SDS011;11658;48.908;9.140;2023-03-23T05:55:00;1.30;;;1.20;;
22983;SDS011;11658;48.908;9.140;2023-03-23T05:57:26;1.57;;;1.30;;
22983;SDS011;11658;48.908;9.140;2023-03-23T05:59:52;4.37;;;1.40;;
22983;SDS011;11658;48.908;9.140;2023-03-23T06:02:18;2.50;;;1.33;;
22983;SDS011;11658;48.908;9.140;2023-03-23T06:04:44;2.13;;;1.30;;
22983;SDS011;11658;48.908;9.140;2023-03-23T06:07:09;1.67;;;1.37;;
22983;SDS011;11658;48.908;9.140;2023-03-23T06:09:38;2.43;;;1.33;;
22983;SDS011;11658;48.908;9.140;2023-03-23T06:12:05;1.43;;;1.30;;
22983;SDS011;11658;48.908;9.140;2023-03-23T06:14:31;1.93;;;1.60;;
22983;SDS011;11658;48.908;9.140;2023-03-23T06:16:57;2.80;;;1.40;;
22983;SDS011;11658;48.908;9.140;2023-03-23T06:19:22;2.63;;;1.30;;
22983;SDS011;11658;48.908;9.140;2023-03-23T06:21:48;1.90;;;1.47;;
22983;SDS011;11658;48.908;9.140;2023-03-23T06:24:14;4.80;;;2.00;;
22983;SDS011;11658;48.908;9.140;2023-03-23T06:26:40;2.17;;;1.50;;
22983;SDS011;11658;48.908;9.140;2023-03-23T06:29:09;5.13;;;1.40;;
22983;SDS011;11658;48.908;9.140;2023-03-23T06:31:39;1.37;;;1.20;;
22983;SDS011;11658;48.908;9.140;2023-03-23T06:34:07;1.53;;;1.27;;
22983;SDS011;11658;48.908;9.140;2023-03-23T06:36:34;1.73;;;1.40;;
22983;SDS011;11658;48.908;9.140;2023-03-23T06:39:00;2.00;;;1.60;;
22983;SDS011;11658;48.908;9.140;2023-03-23T06:41:26;2.57;;;1.53;;
22983;SDS011;11658;48.908;9.140;2023-03-23T06:43:51;3.30;;;1.33;;
22983;SDS011;11658;48.908;9.140;2023-03-23T06:46:17;4.40;;;1.50;;
22983;SDS011;11658;48.908;9.140;2023-03-23T06:48:43;1.87;;;1.70;;
22983;SDS011;11658;48.908;9.140;2023-03-23T06:51:08;3.77;;;1.67;;
22983;SDS011;11658;48.908;9.140;2023-03-23T06:53:34;1.57;;;1.30;;
22983;SDS011;11658;48.908;9.140;2023-03-23T06:56:00;1.80;;;1.60;;
22983;SDS011;11658;48.908;9.140;2023-03-23T06:58:25;1.73;;;1.40;;
22983;SDS011;11658;48.908;9.140;2023-03-23T07:00:55;1.90;;;1.30;;
22983;SDS011;11658;48.908;9.140;2023-03-23T07:03:21;3.23;;;1.30;;
22983;SDS011;11658;48.908;9.140;2023-03-23T07:05:48;1.40;;;1.30;;
22983;SDS011;11658;48.908;9.140;2023-03-23T07:08:14;2.93;;;1.40;;
22983;SDS011;11658;48.908;9.140;2023-03-23T07:10:39;1.57;;;1.40;;
22983;SDS011;11658;48.908;9.140;2023-03-23T07:13:05;2.27;;;1.30;;
22983;SDS011;11658;48.908;9.140;2023-03-23T07:15:30;3.13;;;1.50;;
22983;SDS011;11658;48.908;9.140;2023-03-23T07:17:56;1.90;;;1.50;;
22983;SDS011;11658;48.908;9.140;2023-03-23T07:20:22;1.40;;;1.17;;
22983;SDS011;11658;48.908;9.140;2023-03-23T07:22:48;1.60;;;1.40;;
22983;SDS011;11658;48.908;9.140;2023-03-23T07:25:14;5.43;;;1.47;;
22983;SDS011;11658;48.908;9.140;2023-03-23T07:27:41;1.80;;;1.33;;
22983;SDS011;11658;48.908;9.140;2023-03-23T07:30:06;3.60;;;1.63;;
22983;SDS011;11658;48.908;9.140;2023-03-23T07:32:32;1.63;;;1.30;;
22983;SDS011;11658;48.908;9.140;2023-03-23T07:34:58;1.77;;;1.27;;
22983;SDS011;11658;48.908;9.140;2023-03-23T07:37:24;2.80;;;1.50;;
22983;SDS011;11658;48.908;9.140;2023-03-23T07:39:50;2.63;;;1.40;;
22983;SDS011;11658;48.908;9.140;2023-03-23T07:42:16;1.80;;;1.30;;
22983;SDS011;11658;48.908;9.140;2023-03-23T07:44:41;6.37;;;1.40;;
22983;SDS011;11658;48.908;9.140;2023-03-23T07:47:07;3.40;;;1.70;;
22983;SDS011;11658;48.908;9.140;2023-03-23T07:49:32;5.17;;;1.60;;
22983;SDS011;11658;48.908;9.140;2023-03-23T07:51:58;3.07;;;1.40;;
22983;SDS011;11658;48.908;9.140;2023-03-23T07:54:26;4.10;;;1.50;;
22983;SDS011;11658;48.908;9.140;2023-03-23T07:56:51;2.03;;;1.70;;
22983;SDS011;11658;48.908;9.140;2023-03-23T07:59:17;3.10;;;1.27;;
22983;SDS011;11658;48.908;9.140;2023-03-23T08:01:42;3.20;;;1.70;;
22983;SDS011;11658;48.908;9.140;2023-03-23T08:04:08;1.93;;;1.47;;
22983;SDS011;11658;48.908;9.140;2023-03-23T08:06:34;2.53;;;1.60;;
22983;SDS011;11658;48.908;9.140;2023-03-23T08:09:00;5.00;;;1.90;;
22983;SDS011;11658;48.908;9.140;2023-03-23T08:11:31;6.43;;;1.67;;
22983;SDS011;11658;48.908;9.140;2023-03-23T08:13:57;2.77;;;1.60;;
22983;SDS011;11658;48.908;9.140;2023-03-23T08:16:22;4.27;;;1.40;;
22983;SDS011;11658;48.908;9.140;2023-03-23T08:18:49;2.00;;;1.73;;
22983;SDS011;11658;48.908;9.140;2023-03-23T08:21:15;3.27;;;1.67;;
22983;SDS011;11658;48.908;9.140;2023-03-23T08:23:40;2.60;;;1.50;;
22983;SDS011;11658;48.908;9.140;2023-03-23T08:26:07;2.03;;;1.30;;
22983;SDS011;11658;48.908;9.140;2023-03-23T08:28:33;3.00;;;1.40;;
22983;SDS011;11658;48.908;9.140;2023-03-23T08:31:00;2.60;;;1.33;;
22983;SDS011;11658;48.908;9.140;2023-03-23T08:33:31;3.13;;;1.40;;
22983;SDS011;11658;48.908;9.140;2023-03-23T08:35:58;2.07;;;1.10;;
22983;SDS011;11658;48.908;9.140;2023-03-23T08:38:26;1.33;;;1.23;;
22983;SDS011;11658;48.908;9.140;2023-03-23T08:40:56;1.50;;;1.30;;
22983;SDS011;11658;48.908;9.140;2023-03-23T08:43:23;4.27;;;1.83;;
22983;SDS011;11658;48.908;9.140;2023-03-23T08:45:49;7.33;;;2.17;;
22983;SDS011;11658;48.908;9.140;2023-03-23T08:48:16;2.07;;;1.47;;
22983;SDS011;11658;48.908;9.140;2023-03-23T08:50:42;3.00;;;1.80;;
22983;SDS011;11658;48.908;9.140;2023-03-23T08:53:08;2.00;;;1.53;;
22983;SDS011;11658;48.908;9.140;2023-03-23T08:55:33;2.20;;;1.33;;
22983;SDS011;11658;48.908;9.140;2023-03-23T08:57:59;2.13;;;1.30;;
22983;SDS011;11658;48.908;9.140;2023-03-23T09:00:25;1.73;;;1.50;;
22983;SDS011;11658;48.908;9.140;2023-03-23T09:02:53;2.53;;;1.80;;
22983;SDS011;11658;48.908;9.140;2023-03-23T09:05:20;2.90;;;1.70;;
22983;SDS011;11658;48.908;9.140;2023-03-23T09:07:49;4.07;;;1.77;;
22983;SDS011;11658;48.908;9.140;2023-03-23T09:10:16;4.20;;;1.63;;
22983;SDS011;11658;48.908;9.140;2023-03-23T09:12:43;2.83;;;1.50;;
22983;SDS011;11658;48.908;9.140;2023-03-23T09:15:11;2.80;;;1.60;;
22983;SDS011;11658;48.908;9.140;2023-03-23T09:17:40;2.90;;;1.60;;
22983;SDS011;11658;48.908;9.140;2023-03-23T09:20:07;2.37;;;1.43;;
22983;SDS011;11658;48.908;9.140;2023-03-23T09:22:39;1.30;;;1.20;;
22983;SDS011;11658;48.908;9.140;2023-03-23T09:25:13;1.60;;;1.30;;
22983;SDS011;11658;48.908;9.140;2023-03-23T09:27:42;1.63;;;1.27;;
22983;SDS011;11658;48.908;9.140;2023-03-23T09:30:11;1.93;;;1.50;;
22983;SDS011;11658;48.908;9.140;2023-03-23T09:32:39;4.60;;;1.30;;
22983;SDS011;11658;48.908;9.140;2023-03-23T09:35:06;2.23;;;1.20;;
22983;SDS011;11658;48.908;9.140;2023-03-23T09:37:37;3.43;;;1.57;;
22983;SDS011;11658;48.908;9.140;2023-03-23T09:40:05;1.40;;;1.30;;
22983;SDS011;11658;48.908;9.140;2023-03-23T09:42:41;2.13;;;1.30;;
22983;SDS011;11658;48.908;9.140;2023-03-23T09:48:15;2.60;;;1.20;;
22983;SDS011;11658;48.908;9.140;2023-03-23T09:51:00;1.40;;;1.17;;
22983;SDS011;11658;48.908;9.140;2023-03-23T09:53:36;3.27;;;1.10;;
22983;SDS011;11658;48.908;9.140;2023-03-23T09:56:08;2.87;;;1.03;;
22983;SDS011;11658;48.908;9.140;2023-03-23T09:58:58;3.10;;;1.47;;
22983;SDS011;11658;48.908;9.140;2023-03-23T10:01:30;1.95;;;1.30;;
22983;SDS011;11658;48.908;9.140;2023-03-23T10:04:02;2.10;;;1.20;;
22983;SDS011;11658;48.908;9.140;2023-03-23T10:06:32;1.60;;;1.23;;
22983;SDS011;11658;48.908;9.140;2023-03-23T10:08:57;3.10;;;1.40;;
22983;SDS011;11658;48.908;9.140;2023-03-23T10:14:05;3.10;;;1.77;;
22983;SDS011;11658;48.908;9.140;2023-03-23T10:16:54;2.40;;;1.37;;
22983;SDS011;11658;48.908;9.140;2023-03-23T10:19:45;2.53;;;1.40;;
22983;SDS011;11658;48.908;9.140;2023-03-23T10:22:16;1.50;;;1.30;;
22983;SDS011;11658;48.908;9.140;2023-03-23T10:24:49;1.90;;;1.20;;
22983;SDS011;11658;48.908;9.140;2023-03-23T10:27:26;3.40;;;1.40;;
22983;SDS011;11658;48.908;9.140;2023-03-23T10:33:01;2.63;;;1.30;;
22983;SDS011;11658;48.908;9.140;2023-03-23T10:35:33;2.07;;;1.30;;
22983;SDS011;11658;48.908;9.140;2023-03-23T10:38:04;2.53;;;1.20;;
22983;SDS011;11658;48.908;9.140;2023-03-23T10:40:43;2.47;;;1.20;;
22983;SDS011;11658;48.908;9.140;2023-03-23T10:43:12;1.20;;;1.10;;
22983;SDS011;11658;48.908;9.140;2023-03-23T10:45:38;1.30;;;0.90;;
22983;SDS011;11658;48.908;9.140;2023-03-23T10:50:38;2.10;;;1.20;;
22983;SDS011;11658;48.908;9.140;2023-03-23T10:53:12;1.27;;;1.00;;
22983;SDS011;11658;48.908;9.140;2023-03-23T10:55:44;2.10;;;1.30;;
22983;SDS011;11658;48.908;9.140;2023-03-23T10:58:12;3.93;;;1.20;;
22983;SDS011;11658;48.908;9.140;2023-03-23T11:00:47;2.20;;;1.10;;
22983;SDS011;11658;48.908;9.140;2023-03-23T11:05:47;1.10;;;1.00;;
22983;SDS011;11658;48.908;9.140;2023-03-23T11:08:26;1.20;;;1.10;;
22983;SDS011;11658;48.908;9.140;2023-03-23T11:13:30;1.23;;;1.13;;
22983;SDS011;11658;48.908;9.140;2023-03-23T11:15:57;1.87;;;1.17;;
22983;SDS011;11658;48.908;9.140;2023-03-23T11:18:25;3.57;;;1.50;;
22983;SDS011;11658;48.908;9.140;2023-03-23T11:21:04;2.63;;;0.97;;
22983;SDS011;11658;48.908;9.140;2023-03-23T11:23:33;1.23;;;1.10;;
22983;SDS011;11658;48.908;9.140;2023-03-23T11:26:16;2.37;;;1.20;;
22983;SDS011;11658;48.908;9.140;2023-03-23T11:31:29;1.60;;;1.37;;
22983;SDS011;11658;48.908;9.140;2023-03-23T11:34:10;1.97;;;1.50;;
22983;SDS011;11658;48.908;9.140;2023-03-23T11:36:40;2.73;;;1.53;;
22983;SDS011;11658;48.908;9.140;2023-03-23T11:42:18;1.60;;;1.30;;
22983;SDS011;11658;48.908;9.140;2023-03-23T11:47:59;1.67;;;1.20;;
22983;SDS011;11658;48.908;9.140;2023-03-23T11:50:34;1.40;;;1.20;;
22983;SDS011;11658;48.908;9.140;2023-03-23T11:58:15;1.83;;;1.20;;
22983;SDS011;11658;48.908;9.140;2023-03-23T12:03:20;2.00;;;1.30;;
22983;SDS011;11658;48.908;9.140;2023-03-23T12:11:12;1.93;;;1.40;;
22983;SDS011;11658;48.908;9.140;2023-03-23T12:13:45;1.30;;;1.20;;
22983;SDS011;11658;48.908;9.140;2023-03-23T12:30:23;1.70;;;1.20;;
22983;SDS011;11658;48.908;9.140;2023-03-23T12:36:20;2.47;;;1.37;;
22983;SDS011;11658;48.908;9.140;2023-03-23T12:42:40;1.70;;;1.40;;
22983;SDS011;11658;48.908;9.140;2023-03-23T12:45:37;2.07;;;1.30;;
22983;SDS011;11658;48.908;9.140;2023-03-23T12:48:24;2.17;;;1.40;;
22983;SDS011;11658;48.908;9.140;2023-03-23T12:51:14;2.10;;;1.53;;
22983;SDS011;11658;48.908;9.140;2023-03-23T12:53:55;2.60;;;1.40;;
22983;SDS011;11658;48.908;9.140;2023-03-23T13:04:59;3.60;;;2.13;;
22983;SDS011;11658;48.908;9.140;2023-03-23T13:07:29;2.00;;;1.80;;
22983;SDS011;11658;48.908;9.140;2023-03-23T13:10:12;2.57;;;1.47;;
22983;SDS011;11658;48.908;9.140;2023-03-23T13:12:48;2.57;;;1.60;;
22983;SDS011;11658;48.908;9.140;2023-03-23T13:15:26;2.17;;;1.50;;
22983;SDS011;11658;48.908;9.140;2023-03-23T13:18:57;1.80;;;1.40;;
22983;SDS011;11658;48.908;9.140;2023-03-23T13:21:16;2.40;;;1.50;;
22983;SDS011;11658;48.908;9.140;2023-03-23T13:23:53;1.97;;;1.73;;
22983;SDS011;11658;48.908;9.140;2023-03-23T13:26:23;1.77;;;1.60;;
22983;SDS011;11658;48.908;9.140;2023-03-23T13:31:51;2.13;;;1.47;;
22983;SDS011;11658;48.908;9.140;2023-03-23T13:34:18;3.13;;;1.60;;
22983;SDS011;11658;48.908;9.140;2023-03-23T13:39:57;4.83;;;1.53;;
22983;SDS011;11658;48.908;9.140;2023-03-23T13:42:36;1.80;;;1.50;;
22983;SDS011;11658;48.908;9.140;2023-03-23T13:47:43;2.57;;;1.67;;
22983;SDS011;11658;48.908;9.140;2023-03-23T13:50:23;2.47;;;1.67;;
22983;SDS011;11658;48.908;9.140;2023-03-23T13:52:52;4.67;;;1.90;;
22983;SDS011;11658;48.908;9.140;2023-03-23T14:05:43;2.47;;;1.70;;
22983;SDS011;11658;48.908;9.140;2023-03-23T14:10:57;2.10;;;1.90;;
22983;SDS011;11658;48.908;9.140;2023-03-23T14:13:32;2.00;;;1.70;;
22983;SDS011;11658;48.908;9.140;2023-03-23T14:18:56;3.13;;;2.03;;
22983;SDS011;11658;48.908;9.140;2023-03-23T14:24:08;2.30;;;1.40;;
22983;SDS011;11658;48.908;9.140;2023-03-23T14:26:40;3.50;;;1.43;;
22983;SDS011;11658;48.908;9.140;2023-03-23T14:29:09;2.13;;;1.77;;
22983;SDS011;11658;48.908;9.140;2023-03-23T14:31:37;2.83;;;1.60;;
22983;SDS011;11658;48.908;9.140;2023-03-23T14:34:04;1.83;;;1.50;;
22983;SDS011;11658;48.908;9.140;2023-03-23T14:36:39;2.23;;;1.70;;
22983;SDS011;11658;48.908;9.140;2023-03-23T14:42:12;2.13;;;1.70;;
22983;SDS011;11658;48.908;9.140;2023-03-23T14:44:41;1.90;;;1.80;;
22983;SDS011;11658;48.908;9.140;2023-03-23T14:47:18;2.80;;;1.73;;
22983;SDS011;11658;48.908;9.140;2023-03-23T14:49:54;2.90;;;1.60;;
22983;SDS011;11658;48.908;9.140;2023-03-23T14:52:21;2.50;;;1.73;;
22983;SDS011;11658;48.908;9.140;2023-03-23T14:54:49;7.87;;;2.00;;
22983;SDS011;11658;48.908;9.140;2023-03-23T14:57:16;2.63;;;1.60;;
22983;SDS011;11658;48.908;9.140;2023-03-23T14:59:44;2.53;;;1.90;;
22983;SDS011;11658;48.908;9.140;2023-03-23T15:02:12;2.43;;;1.50;;
22983;SDS011;11658;48.908;9.140;2023-03-23T15:04:43;2.63;;;1.70;;
22983;SDS011;11658;48.908;9.140;2023-03-23T15:07:10;2.83;;;1.67;;
22983;SDS011;11658;48.908;9.140;2023-03-23T15:09:40;2.60;;;1.60;;
22983;SDS011;11658;48.908;9.140;2023-03-23T15:14:53;3.40;;;2.40;;
22983;SDS011;11658;48.908;9.140;2023-03-23T15:17:24;2.27;;;1.77;;
22983;SDS011;11658;48.908;9.140;2023-03-23T15:19:52;3.00;;;1.97;;
22983;SDS011;11658;48.908;9.140;2023-03-23T15:24:45;2.27;;;1.90;;
22983;SDS011;11658;48.908;9.140;2023-03-23T15:32:47;3.63;;;2.20;;
22983;SDS011;11658;48.908;9.140;2023-03-23T15:35:16;2.17;;;1.73;;
22983;SDS011;11658;48.908;9.140;2023-03-23T15:37:45;3.10;;;1.80;;
22983;SDS011;11658;48.908;9.140;2023-03-23T15:40:14;4.27;;;2.00;;
22983;SDS011;11658;48.908;9.140;2023-03-23T15:42:47;1.93;;;1.60;;
22983;SDS011;11658;48.908;9.140;2023-03-23T15:45:25;3.27;;;1.70;;
22983;SDS011;11658;48.908;9.140;2023-03-23T15:47:52;2.40;;;1.77;;
22983;SDS011;11658;48.908;9.140;2023-03-23T15:52:50;5.20;;;1.63;;
22983;SDS011;11658;48.908;9.140;2023-03-23T15:55:26;3.50;;;2.00;;
22983;SDS011;11658;48.908;9.140;2023-03-23T15:57:54;3.83;;;1.70;;
22983;SDS011;11658;48.908;9.140;2023-03-23T16:00:22;2.00;;;1.80;;
22983;SDS011;11658;48.908;9.140;2023-03-23T16:03:00;4.30;;;1.77;;
22983;SDS011;11658;48.908;9.140;2023-03-23T16:05:28;3.40;;;1.90;;
22983;SDS011;11658;48.908;9.140;2023-03-23T16:07:54;4.97;;;2.10;;
22983;SDS011;11658;48.908;9.140;2023-03-23T16:10:21;3.03;;;2.40;;
22983;SDS011;11658;48.908;9.140;2023-03-23T16:12:47;2.47;;;1.90;;
22983;SDS011;11658;48.908;9.140;2023-03-23T16:15:13;3.63;;;1.77;;
22983;SDS011;11658;48.908;9.140;2023-03-23T16:17:40;3.60;;;2.90;;
22983;SDS011;11658;48.908;9.140;2023-03-23T16:22:39;5.80;;;1.90;;
22983;SDS011;11658;48.908;9.140;2023-03-23T16:25:05;2.07;;;1.83;;
22983;SDS011;11658;48.908;9.140;2023-03-23T16:27:32;2.43;;;2.00;;
22983;SDS011;11658;48.908;9.140;2023-03-23T16:29:57;3.63;;;2.00;;
22983;SDS011;11658;48.908;9.140;2023-03-23T16:32:24;2.33;;;1.60;;
22983;SDS011;11658;48.908;9.140;2023-03-23T16:34:50;2.90;;;1.90;;
22983;SDS011;11658;48.908;9.140;2023-03-23T16:37:16;2.67;;;2.07;;
22983;SDS011;11658;48.908;9.140;2023-03-23T16:39:42;4.27;;;1.93;;
22983;SDS011;11658;48.908;9.140;2023-03-23T16:42:08;2.83;;;2.20;;
22983;SDS011;11658;48.908;9.140;2023-03-23T16:44:33;4.43;;;1.90;;
22983;SDS011;11658;48.908;9.140;2023-03-23T16:46:59;1.93;;;1.73;;
22983;SDS011;11658;48.908;9.140;2023-03-23T16:49:25;3.30;;;1.93;;
22983;SDS011;11658;48.908;9.140;2023-03-23T16:51:50;2.23;;;1.67;;
22983;SDS011;11658;48.908;9.140;2023-03-23T16:54:16;2.80;;;1.90;;
22983;SDS011;11658;48.908;9.140;2023-03-23T16:56:41;2.13;;;1.73;;
22983;SDS011;11658;48.908;9.140;2023-03-23T16:59:10;2.13;;;1.70;;
22983;SDS011;11658;48.908;9.140;2023-03-23T17:01:39;2.97;;;1.80;;
22983;SDS011;11658;48.908;9.140;2023-03-23T17:04:05;3.53;;;2.50;;
22983;SDS011;11658;48.908;9.140;2023-03-23T17:06:31;3.13;;;2.33;;
22983;SDS011;11658;48.908;9.140;2023-03-23T17:08:57;2.37;;;2.00;;
22983;SDS011;11658;48.908;9.140;2023-03-23T17:11:22;3.70;;;1.90;;
22983;SDS011;11658;48.908;9.140;2023-03-23T17:13:48;4.40;;;2.30;;
22983;SDS011;11658;48.908;9.140;2023-03-23T17:16:14;2.53;;;1.90;;
22983;SDS011;11658;48.908;9.140;2023-03-23T17:18:39;2.87;;;1.93;;
22983;SDS011;11658;48.908;9.140;2023-03-23T17:21:05;4.93;;;2.47;;
22983;SDS011;11658;48.908;9.140;2023-03-23T17:23:31;5.47;;;2.30;;
22983;SDS011;11658;48.908;9.140;2023-03-23T17:25:57;5.47;;;2.53;;
22983;SDS011;11658;48.908;9.140;2023-03-23T17:28:23;4.47;;;2.47;;
22983;SDS011;11658;48.908;9.140;2023-03-23T17:30:50;3.80;;;2.20;;
22983;SDS011;11658;48.908;9.140;2023-03-23T17:33:17;4.83;;;2.40;;
22983;SDS011;11658;48.908;9.140;2023-03-23T17:35:44;3.67;;;3.33;;
22983;SDS011;11658;48.908;9.140;2023-03-23T17:38:10;3.17;;;2.60;;
22983;SDS011;11658;48.908;9.140;2023-03-23T17:40:36;3.97;;;2.50;;
22983;SDS011;11658;48.908;9.140;2023-03-23T17:43:02;3.03;;;2.50;;
22983;SDS011;11658;48.908;9.140;2023-03-23T17:45:28;3.47;;;2.70;;
22983;SDS011;11658;48.908;9.140;2023-03-23T17:47:54;3.70;;;2.70;;
22983;SDS011;11658;48.908;9.140;2023-03-23T17:50:19;4.90;;;2.83;;
22983;SDS011;11658;48.908;9.140;2023-03-23T17:52:45;5.87;;;3.40;;
22983;SDS011;11658;48.908;9.140;2023-03-23T17:55:11;4.27;;;2.90;;
22983;SDS011;11658;48.908;9.140;2023-03-23T17:57:36;5.70;;;2.60;;
22983;SDS011;11658;48.908;9.140;2023-03-23T18:00:03;4.00;;;2.63;;
22983;SDS011;11658;48.908;9.140;2023-03-23T18:02:32;5.07;;;2.50;;
22983;SDS011;11658;48.908;9.140;2023-03-23T18:04:58;2.10;;;1.90;;
22983;SDS011;11658;48.908;9.140;2023-03-23T18:07:23;3.33;;;1.93;;
22983;SDS011;11658;48.908;9.140;2023-03-23T18:09:50;2.33;;;1.60;;
22983;SDS011;11658;48.908;9.140;2023-03-23T18:12:16;4.00;;;2.00;;
22983;SDS011;11658;48.908;9.140;2023-03-23T18:14:42;3.10;;;1.73;;
22983;SDS011;11658;48.908;9.140;2023-03-23T18:17:08;2.40;;;1.73;;
22983;SDS011;11658;48.908;9.140;2023-03-23T18:19:34;3.13;;;1.70;;
22983;SDS011;11658;48.908;9.140;2023-03-23T18:22:00;1.97;;;1.67;;
22983;SDS011;11658;48.908;9.140;2023-03-23T18:24:26;2.50;;;1.80;;
22983;SDS011;11658;48.908;9.140;2023-03-23T18:26:52;2.40;;;1.73;;
22983;SDS011;11658;48.908;9.140;2023-03-23T18:29:17;2.00;;;1.63;;
22983;SDS011;11658;48.908;9.140;2023-03-23T18:31:43;2.97;;;2.07;;
22983;SDS011;11658;48.908;9.140;2023-03-23T18:34:09;2.40;;;1.70;;
22983;SDS011;11658;48.908;9.140;2023-03-23T18:36:34;1.80;;;1.40;;
22983;SDS011;11658;48.908;9.140;2023-03-23T18:39:00;1.80;;;1.60;;
22983;SDS011;11658;48.908;9.140;2023-03-23T18:41:26;4.47;;;1.83;;
22983;SDS011;11658;48.908;9.140;2023-03-23T18:43:51;3.60;;;1.57;;
22983;SDS011;11658;48.908;9.140;2023-03-23T18:46:17;3.50;;;1.80;;
22983;SDS011;11658;48.908;9.140;2023-03-23T18:48:43;2.47;;;1.87;;
22983;SDS011;11658;48.908;9.140;2023-03-23T18:51:09;2.47;;;1.80;;
22983;SDS011;11658;48.908;9.140;2023-03-23T18:53:35;2.87;;;1.90;;
22983;SDS011;11658;48.908;9.140;2023-03-23T18:56:05;3.27;;;1.60;;
22983;SDS011;11658;48.908;9.140;2023-03-23T18:58:33;2.03;;;1.40;;
22983;SDS011;11658;48.908;9.140;2023-03-23T19:01:01;2.57;;;1.50;;
22983;SDS011;11658;48.908;9.140;2023-03-23T19:03:28;2.50;;;1.70;;
22983;SDS011;11658;48.908;9.140;2023-03-23T19:05:56;2.03;;;1.83;;
22983;SDS011;11658;48.908;9.140;2023-03-23T19:08:23;2.60;;;1.70;;
22983;SDS011;11658;48.908;9.140;2023-03-23T19:10:49;2.47;;;1.40;;
22983;SDS011;11658;48.908;9.140;2023-03-23T19:13:19;2.13;;;1.53;;
22983;SDS011;11658;48.908;9.140;2023-03-23T19:15:45;2.27;;;1.67;;
22983;SDS011;11658;48.908;9.140;2023-03-23T19:18:11;1.90;;;1.70;;
22983;SDS011;11658;48.908;9.140;2023-03-23T19:20:36;2.33;;;1.90;;
22983;SDS011;11658;48.908;9.140;2023-03-23T19:23:02;2.47;;;1.77;;
22983;SDS011;11658;48.908;9.140;2023-03-23T19:25:27;3.17;;;1.97;;
22983;SDS011;11658;48.908;9.140;2023-03-23T19:27:53;2.33;;;1.70;;
22983;SDS011;11658;48.908;9.140;2023-03-23T19:30:19;2.00;;;1.80;;
22983;SDS011;11658;48.908;9.140;2023-03-23T19:32:45;2.43;;;1.90;;
22983;SDS011;11658;48.908;9.140;2023-03-23T19:35:10;2.23;;;1.90;;
22983;SDS011;11658;48.908;9.140;2023-03-23T19:37:36;2.40;;;1.70;;
22983;SDS011;11658;48.908;9.140;2023-03-23T19:40:02;1.63;;;1.53;;
22983;SDS011;11658;48.908;9.140;2023-03-23T19:42:30;2.57;;;1.57;;
22983;SDS011;11658;48.908;9.140;2023-03-23T19:44:56;1.80;;;1.60;;
22983;SDS011;11658;48.908;9.140;2023-03-23T19:47:21;2.40;;;1.80;;
22983;SDS011;11658;48.908;9.140;2023-03-23T19:49:47;1.90;;;1.50;;
22983;SDS011;11658;48.908;9.140;2023-03-23T19:52:13;2.90;;;1.67;;
22983;SDS011;11658;48.908;9.140;2023-03-23T19:54:38;2.87;;;1.70;;
22983;SDS011;11658;48.908;9.140;2023-03-23T19:57:04;2.60;;;1.40;;
22983;SDS011;11658;48.908;9.140;2023-03-23T19:59:30;2.57;;;1.67;;
22983;SDS011;11658;48.908;9.140;2023-03-23T20:01:56;2.87;;;1.70;;
22983;SDS011;11658;48.908;9.140;2023-03-23T20:04:21;2.00;;;1.50;;
22983;SDS011;11658;48.908;9.140;2023-03-23T20:06:48;1.50;;;1.40;;
22983;SDS011;11658;48.908;9.140;2023-03-23T20:09:14;3.40;;;1.90;;
22983;SDS011;11658;48.908;9.140;2023-03-23T20:11:40;2.03;;;1.70;;
22983;SDS011;11658;48.908;9.140;2023-03-23T20:14:06;1.80;;;1.63;;
22983;SDS011;11658;48.908;9.140;2023-03-23T20:16:32;2.80;;;1.60;;
22983;SDS011;11658;48.908;9.140;2023-03-23T20:18:58;2.47;;;1.80;;
22983;SDS011;11658;48.908;9.140;2023-03-23T20:21:24;1.83;;;1.43;;
22983;SDS011;11658;48.908;9.140;2023-03-23T20:23:51;2.03;;;1.80;;
22983;SDS011;11658;48.908;9.140;2023-03-23T20:26:24;2.03;;;1.70;;
22983;SDS011;11658;48.908;9.140;2023-03-23T20:28:58;3.80;;;1.70;;
22983;SDS011;11658;48.908;9.140;2023-03-23T20:31:25;2.20;;;1.60;;
22983;SDS011;11658;48.908;9.140;2023-03-23T20:34:00;2.00;;;1.80;;
22983;SDS011;11658;48.908;9.140;2023-03-23T20:36:35;1.63;;;1.50;;
22983;SDS011;11658;48.908;9.140;2023-03-23T20:39:05;2.20;;;1.70;;
22983;SDS011;11658;48.908;9.140;2023-03-23T20:41:36;2.10;;;1.90;;
22983;SDS011;11658;48.908;9.140;2023-03-23T20:44:04;1.73;;;1.43;;
22983;SDS011;11658;48.908;9.140;2023-03-23T20:46:31;3.10;;;1.80;;
22983;SDS011;11658;48.908;9.140;2023-03-23T20:48:57;1.93;;;1.50;;
22983;SDS011;11658;48.908;9.140;2023-03-23T20:51:23;2.43;;;1.70;;